Ames, Texas
Current Conditions -  °F | °C
As of 9:55 PM on Wednesday 17 Dec 2014 (Local Time) from K6R3 Reporting Station
Overcast Overcast  
Wind Chill: 14°   Ceiling: 1600
Heat Index: 14°   Visibility: 7mi
Dew Point: 10°   Wind: 0mph
Humidity: 81%   Direction: NA
Pressure: 30.14"   Gusts: NA
Location:  30.0821°N, 94.7401°W
Report Text: K6R3 180355Z AUTO 00000KT 7SM OVC016 14/10 A3014 RMK AO2 T01350103
Loading
Personal Weather Stations






























Interactive Weather Map New forecast layout! Learn more

10-Day Weather Forecast

Advertisements
Track Severe Weather on mobile